Etty, Kentucky
Current Conditions -  °F | °C
As of 4:15 PM on Monday 22 Dec 2014 (Local Time) from KPBX Reporting Station
Scattered Clouds Scattered Clouds  
Wind Chill: 54°   Ceiling: Unl
Heat Index: 54°   Visibility: 10mi
Dew Point: 40°   Wind: 7mph
Humidity: 59%   Direction: 60°ENE
Pressure: 29.86"   Gusts: NA
Location:  37.3022°N, 82.6547°W
Report Text: KPBX 222115Z AUTO 06006KT 10SM SCT095 12/05 A2986 RMK AO2 T01220045
Loading
Personal Weather Stations






























Interactive Weather Map New forecast layout! Learn more

10-Day Weather Forecast

Advertisements
Track Severe Weather on mobile